AF7551 / F-HBNL 7700 Squawk Report (23rd of June, 2021)

Aircraft A320 Reg No. F-HBNL Age 9 years old
Model A320 Jet engines 2 First flight 18-04-12
Registered 21-05-12 Rollout 04-12 Delivered 21-05-12
Construction No. 5129 Line No. N/A Series 214
ADSHEX 3985AB Airline name Air France Owner N/A
Airfield based Paris-Orly~Essonne~F First tracked N/A

Flight history for F-HBNL

Time Lat Lon Altitude Heading Speed Vertical Rate
2021-06-23 08:15:39 GMT 49.006989 2.563353 0 354 2 0
2021-06-23 08:15:36 GMT 49.006973 2.563356 0 354 2 0
2021-06-23 08:15:26 GMT 49.006878 2.563356 0 354 2 0
2021-06-23 08:15:17 GMT 49.006809 2.563374 0 354 3 0
2021-06-23 08:15:07 GMT 49.006680 2.563392 0 357 0 0
2021-06-23 08:14:32 GMT 49.006634 2.563389 0 357 0 0
2021-06-23 08:14:17 GMT 49.006634 2.563392 0 357 0 0
2021-06-23 08:14:02 GMT 49.006645 2.563389 0 357 0 0
2021-06-23 08:13:52 GMT 49.006634 2.563389 0 357 0 0
2021-06-23 08:13:46 GMT 49.006634 2.563392 0 357 0 0
2021-06-23 08:13:36 GMT 49.006634 2.563389 0 357 0 0
2021-06-23 08:13:24 GMT 49.006588 2.563392 0 0 3 0
2021-06-23 08:13:14 GMT 49.006451 2.563428 0 22 5 0
2021-06-23 08:13:04 GMT 49.006214 2.563248 0 78 7 0
2021-06-23 08:12:54 GMT 49.006165 2.562719 0 84 12 0
2021-06-23 08:12:44 GMT 49.006119 2.561646 0 84 16 0
2021-06-23 08:12:29 GMT 49.005867 2.560026 0 70 16 0
2021-06-23 08:12:23 GMT 49.005749 2.559435 0 81 17 0
2021-06-23 08:12:00 GMT 49.005592 2.556857 0 84 15 0
2021-06-23 08:11:53 GMT 49.005550 2.556201 0 84 14 0
2021-06-23 08:11:45 GMT 49.005505 2.555297 0 84 13 0
2021-06-23 08:11:26 GMT 49.005436 2.553833 0 98 12 0
2021-06-23 08:10:31 GMT 49.008694 2.551451 0 163 21 0
2021-06-23 08:10:09 GMT 49.010799 2.550536 0 163 21 0
2021-06-23 08:08:39 GMT 49.018215 2.548564 0 174 15 0
2021-06-23 08:08:31 GMT 49.018761 2.548503 0 174 14 0
2021-06-23 08:08:18 GMT 49.019543 2.548413 0 171 13 0
2021-06-23 08:08:05 GMT 49.020145 2.548015 0 106 10 0
2021-06-23 08:07:58 GMT 49.020218 2.547596 0 87 10 0
2021-06-23 08:07:44 GMT 49.020184 2.546663 0 84 11 0
2021-06-23 08:07:41 GMT 49.020157 2.546425 0 84 12 0
2021-06-23 08:07:31 GMT 49.020111 2.545467 0 84 15 0
2021-06-23 08:07:14 GMT 49.020020 2.543859 0 84 14 0
2021-06-23 08:06:12 GMT 49.020622 2.538294 0 104 14 0
2021-06-23 08:05:44 GMT 49.021088 2.535764 0 104 12 0
2021-06-23 08:05:34 GMT 49.021214 2.535007 0 106 11 0
2021-06-23 08:05:28 GMT 49.021305 2.534567 0 106 11 0
2021-06-23 08:05:20 GMT 49.021408 2.534004 0 106 10 0
2021-06-23 08:05:09 GMT 49.021519 2.533306 0 98 10 0
2021-06-23 08:04:59 GMT 49.021591 2.532620 0 95 10 0
2021-06-23 08:04:46 GMT 49.021614 2.531861 0 87 7 0
2021-06-23 08:04:40 GMT 49.021614 2.531554 0 87 5 0
2021-06-23 08:04:28 GMT 49.021603 2.531319 0 87 0 0
2021-06-23 08:04:08 GMT 49.021603 2.531301 0 87 0 0
2021-06-23 08:03:59 GMT 49.021603 2.531264 0 84 9 0
2021-06-23 08:03:49 GMT 49.021488 2.529268 275 84 55 0
2021-06-23 08:03:31 GMT 49.020676 2.514320 275 85 136 -704
2021-06-23 08:03:28 GMT 49.020676 2.514320 175 85 135 -704
2021-06-23 08:03:18 GMT 49.020126 2.503967 325 85 135 -704
2021-06-23 08:03:09 GMT 49.019669 2.494953 425 85 135 -704
2021-06-23 08:03:02 GMT 49.019257 2.487910 525 84 135 -704
2021-06-23 08:02:58 GMT 49.019089 2.485223 600 85 134 -704
2021-06-23 08:02:49 GMT 49.018661 2.477206 675 85 134 -704
2021-06-23 08:02:46 GMT 49.018528 2.474381 775 83 133 -768
2021-06-23 08:02:42 GMT 49.018295 2.470117 750 85 134 -576
2021-06-23 08:02:37 GMT 49.018021 2.465304 825 86 134 -704
2021-06-23 08:02:32 GMT 49.017838 2.460867 875 85 133 -768
2021-06-23 08:02:28 GMT 49.017643 2.457034 925 85 134 -768
2021-06-23 08:02:25 GMT 49.017460 2.453999 1,000 85 135 -768
2021-06-23 08:02:20 GMT 49.017197 2.449458 1,050 85 135 -704
2021-06-23 08:02:17 GMT 49.017014 2.446148 1,075 84 134 -704
2021-06-23 08:02:14 GMT 49.016830 2.443683 1,100 86 136 -640
2021-06-23 08:02:10 GMT 49.016621 2.439688 1,175 85 135 -704
2021-06-23 08:02:06 GMT 49.016464 2.436500 1,225 85 134 -640
2021-06-23 08:02:03 GMT 49.016235 2.432838 1,300 85 134 -704
2021-06-23 08:02:00 GMT 49.016109 2.430002 1,425 84 134 -704
2021-06-23 08:01:57 GMT 49.015961 2.426781 1,300 85 134 -640
2021-06-23 08:01:54 GMT 49.015869 2.425021 1,325 84 134 -704
2021-06-23 08:01:49 GMT 49.015549 2.420100 1,400 83 133 -768
2021-06-23 08:01:46 GMT 49.015366 2.417274 1,450 85 135 -832
2021-06-23 08:01:43 GMT 49.015179 2.414679 1,450 84 134 -704
2021-06-23 08:01:39 GMT 49.014908 2.409950 1,525 85 135 -832
2021-06-23 08:01:35 GMT 49.014725 2.405935 1,600 85 136 -704
2021-06-23 08:01:32 GMT 49.014587 2.403048 1,625 85 137 -576
2021-06-23 08:01:29 GMT 49.014481 2.401163 1,625 85 140 -448
2021-06-23 08:01:26 GMT 49.014359 2.398752 1,650 85 143 -640
2021-06-23 08:01:23 GMT 49.014198 2.395887 1,675 85 144 -768
2021-06-23 08:01:20 GMT 49.013992 2.391991 1,725 85 146 -832
2021-06-23 08:01:17 GMT 49.013809 2.388963 1,775 84 147 -896
2021-06-23 08:01:14 GMT 49.013626 2.385583 1,800 84 147 -832
2021-06-23 08:01:09 GMT 49.013351 2.380723 1,900 85 149 -896
2021-06-23 08:01:06 GMT 49.013176 2.377311 1,925 85 150 -960
2021-06-23 08:01:02 GMT 49.012989 2.373408 1,975 85 151 -896
2021-06-23 08:00:58 GMT 49.012665 2.368276 2,050 85 154 -896
2021-06-23 08:00:55 GMT 49.012569 2.366325 2,075 85 155 -896
2021-06-23 08:00:52 GMT 49.012104 2.358230 2,150 85 157 -960
2021-06-23 08:00:49 GMT 49.012104 2.358230 2,225 85 157 -960
2021-06-23 08:00:46 GMT 49.011932 2.354455 2,250 85 158 -960
2021-06-23 08:00:42 GMT 49.011730 2.351219 2,325 85 159 -832
2021-06-23 08:00:38 GMT 49.011314 2.343630 2,375 85 161 -768
2021-06-23 08:00:35 GMT 49.011314 2.343630 2,450 85 165 -704
2021-06-23 08:00:32 GMT 49.011154 2.340158 2,475 85 164 -704
2021-06-23 08:00:27 GMT 49.010849 2.334595 2,475 85 167 -640
2021-06-23 08:00:24 GMT 49.010651 2.331566 2,500 85 168 -640
2021-06-23 08:00:21 GMT 49.010429 2.327078 2,550 85 172 -704
2021-06-23 08:00:18 GMT 49.010193 2.322693 2,600 85 173 -768
2021-06-23 08:00:15 GMT 49.010056 2.320790 2,625 85 175 -768
2021-06-23 08:00:12 GMT 49.009823 2.315947 2,675 85 177 -896
2021-06-23 08:00:08 GMT 49.009544 2.311104 2,800 85 180 -1088
2021-06-23 08:00:05 GMT 49.009323 2.307340 2,775 85 180 -1088
2021-06-23 08:00:02 GMT 49.009171 2.303949 2,825 84 181 -1280
2021-06-23 07:59:59 GMT 49.008987 2.300768 2,925 84 182 -1344
2021-06-23 07:59:55 GMT 49.008636 2.294523 3,000 84 182 -1472
2021-06-23 07:59:52 GMT 49.008408 2.290649 3,075 84 182 -1472
2021-06-23 07:59:49 GMT 49.008224 2.287199 3,125 85 181 -1472
2021-06-23 07:59:45 GMT 49.007915 2.281904 3,300 85 181 -1472
2021-06-23 07:59:42 GMT 49.007721 2.278818 3,300 85 182 -1216
2021-06-23 07:59:39 GMT 49.007496 2.274531 3,375 85 185 -1024
2021-06-23 07:59:35 GMT 49.007126 2.268171 3,475 85 188 -768
2021-06-23 07:59:32 GMT 49.007034 2.266071 3,475 85 189 -576
2021-06-23 07:59:29 GMT 49.006760 2.261282 3,500 84 195 -384
2021-06-23 07:59:26 GMT 49.006256 2.252479 3,525 85 199 -512
2021-06-23 07:59:23 GMT 49.006256 2.252479 3,550 85 201 -704
2021-06-23 07:59:19 GMT 49.005981 2.247268 3,600 85 202 -704
2021-06-23 07:59:16 GMT 49.005726 2.241572 3,675 86 205 -768
2021-06-23 07:59:13 GMT 49.005661 2.239521 3,700 86 208 -768
2021-06-23 07:59:10 GMT 49.005432 2.234450 3,700 86 209 -768
2021-06-23 07:59:07 GMT 49.005215 2.230008 3,750 86 210 -640
2021-06-23 07:59:03 GMT 49.004974 2.224098 3,775 86 213 -320
2021-06-23 07:59:00 GMT 49.004795 2.219600 3,800 86 216 -256
2021-06-23 07:58:57 GMT 49.004608 2.215552 3,800 86 220 0
2021-06-23 07:58:54 GMT 49.004379 2.210999 3,800 85 221 0
2021-06-23 07:58:51 GMT 49.004196 2.206350 3,800 85 222 0
2021-06-23 07:58:47 GMT 49.003876 2.199871 3,800 86 227 -64
2021-06-23 07:58:44 GMT 49.003632 2.194447 3,800 86 227 -64
2021-06-23 07:58:41 GMT 49.003490 2.190182 3,800 87 228 0
2021-06-23 07:58:37 GMT 49.003307 2.183244 3,800 88 228 0
2021-06-23 07:58:34 GMT 49.003235 2.178462 3,800 90 229 0
2021-06-23 07:58:31 GMT 49.003235 2.173744 3,800 90 229 0
2021-06-23 07:58:27 GMT 49.003353 2.167631 3,800 94 229 0
2021-06-23 07:58:24 GMT 49.003586 2.163656 3,800 126 232 0
2021-06-23 07:58:19 GMT 49.004883 2.153813 3,800 106 232 -64
2021-06-23 07:58:16 GMT 49.005775 2.149851 3,800 114 232 0
2021-06-23 07:58:13 GMT 49.006714 2.146489 3,800 120 231 0
2021-06-23 07:58:10 GMT 49.008362 2.142123 3,800 122 231 0
2021-06-23 07:58:07 GMT 49.010284 2.137404 3,800 122 231 0
2021-06-23 07:58:04 GMT 49.012482 2.132193 3,800 122 231 0
2021-06-23 07:58:00 GMT 49.014011 2.128529 3,800 122 230 0
2021-06-23 07:57:57 GMT 49.016418 2.122756 3,825 122 230 0
2021-06-23 07:57:53 GMT 49.018204 2.118460 3,800 123 231 0
2021-06-23 07:57:50 GMT 49.019852 2.114516 3,800 123 231 0
2021-06-23 07:57:47 GMT 49.021648 2.110459 3,825 126 232 0
2021-06-23 07:57:44 GMT 49.023605 2.106417 3,825 129 233 0
2021-06-23 07:57:41 GMT 49.025604 2.102581 3,800 135 234 0
2021-06-23 07:57:38 GMT 49.027512 2.099690 3,800 140 235 0
2021-06-23 07:57:35 GMT 49.031006 2.095498 3,800 148 236 0
2021-06-23 07:57:31 GMT 49.037567 2.090501 3,800 157 238 0
2021-06-23 07:57:28 GMT 49.037567 2.090501 3,800 161 238 -64
2021-06-23 07:57:25 GMT 49.041386 2.088920 3,800 170 241 0
2021-06-23 07:57:20 GMT 49.046135 2.088125 3,800 179 243 0
2021-06-23 07:57:17 GMT 49.049160 2.088270 3,800 187 243 0
2021-06-23 07:57:14 GMT 49.052536 2.088952 3,800 200 245 0
2021-06-23 07:57:11 GMT 49.057308 2.091016 3,800 202 246 0
2021-06-23 07:57:07 GMT 49.060146 2.092823 3,800 227 248 0
2021-06-23 07:57:03 GMT 49.064987 2.097332 3,800 221 248 0
2021-06-23 07:56:58 GMT 49.068619 2.102219 3,800 227 248 0
2021-06-23 07:56:54 GMT 49.071461 2.107207 3,800 236 249 0
2021-06-23 07:56:50 GMT 49.074234 2.114093 3,800 244 249 -64
2021-06-23 07:56:47 GMT 49.075562 2.118742 3,800 254 248 -64
2021-06-23 07:56:44 GMT 49.076485 2.123036 3,825 261 247 -128
2021-06-23 07:56:41 GMT 49.077301 2.128812 3,875 279 244 -1024
2021-06-23 07:56:38 GMT 49.077648 2.133444 3,825 276 243 -128
2021-06-23 07:56:34 GMT 49.077602 2.140166 3,825 278 242 -128
2021-06-23 07:56:30 GMT 49.077091 2.146743 3,850 280 241 -192
2021-06-23 07:56:27 GMT 49.076534 2.151658 3,850 280 243 -512
2021-06-23 07:56:24 GMT 49.075928 2.157335 3,875 280 242 -448
2021-06-23 07:56:20 GMT 49.074436 2.171390 3,925 279 244 -960
2021-06-23 07:56:16 GMT 49.074436 2.171390 3,975 279 244 -1152
2021-06-23 07:56:13 GMT 49.073975 2.175654 4,025 279 244 -1344
2021-06-23 07:56:10 GMT 49.073456 2.180786 4,125 279 244 -1472
2021-06-23 07:56:07 GMT 49.072948 2.185918 4,175 279 244 -1472
2021-06-23 07:56:02 GMT 49.072128 2.194378 4,300 279 244 -1472
2021-06-23 07:55:59 GMT 49.071644 2.199506 4,375 279 244 -1408
2021-06-23 07:55:56 GMT 49.070892 2.206984 4,475 279 245 -1408
2021-06-23 07:55:53 GMT 49.070618 2.209731 4,550 279 245 -1344
2021-06-23 07:55:50 GMT 49.070156 2.214829 4,625 279 245 -1344
2021-06-23 07:55:46 GMT 49.069458 2.221840 4,700 279 245 -1344
2021-06-23 07:55:43 GMT 49.068947 2.226972 4,750 279 245 -1344
2021-06-23 07:55:40 GMT 49.068420 2.232478 4,800 279 245 -1344
2021-06-23 07:55:35 GMT 49.067596 2.240507 4,925 279 246 -1216
2021-06-23 07:55:32 GMT 49.067047 2.245859 4,925 279 246 -1216
2021-06-23 07:55:29 GMT 49.066666 2.249957 5,050 279 247 -1344
2021-06-23 07:55:26 GMT 49.066040 2.255789 5,125 279 247 -1344
2021-06-23 07:55:23 GMT 49.065536 2.261000 5,225 279 247 -1472
2021-06-23 07:55:20 GMT 49.064438 2.271705 5,250 279 247 -1664
2021-06-23 07:55:17 GMT 49.064438 2.271705 5,400 279 247 -1728
2021-06-23 07:55:14 GMT 49.063915 2.276555 5,400 279 247 -1728
2021-06-23 07:55:13 GMT 49.063751 2.278395 5,425 280 247 -1664
2021-06-23 07:55:11 GMT 49.063404 2.281542 5,475 280 247 -1664
2021-06-23 07:55:07 GMT 49.062473 2.290216 5,650 280 245 -1664
2021-06-23 07:55:04 GMT 49.061871 2.295492 5,850 280 245 -1664
2021-06-23 07:55:01 GMT 49.061462 2.298748 5,850 281 244 -1600
2021-06-23 07:54:58 GMT 49.060455 2.307763 5,900 281 244 -1600
2021-06-23 07:54:56 GMT 49.060455 2.307763 5,925 281 244 -1600
2021-06-23 07:54:55 GMT 49.060226 2.309594 5,950 281 244 -1600
2021-06-23 07:54:54 GMT 49.059998 2.311636 5,975 281 244 -1536
2021-06-23 07:54:52 GMT 49.059357 2.317103 6,050 281 244 -1536
2021-06-23 07:54:50 GMT 49.059357 2.317103 6,050 281 244 -1536
2021-06-23 07:54:49 GMT 49.059120 2.318766 6,075 281 244 -1536
2021-06-23 07:54:48 GMT 49.058842 2.321295 6,125 281 244 -1536
2021-06-23 07:54:46 GMT 49.058472 2.324403 6,175 281 244 -1536
2021-06-23 07:54:43 GMT 49.057167 2.335173 6,250 281 244 -1472
2021-06-23 07:54:40 GMT 49.057167 2.335173 6,350 281 244 -1408
2021-06-23 07:54:37 GMT 49.056610 2.339947 6,450 281 244 -1408
2021-06-23 07:54:34 GMT 49.055878 2.345863 6,475 281 244 -1344
2021-06-23 07:54:31 GMT 49.055328 2.350793 6,525 281 245 -1408
2021-06-23 07:54:29 GMT 49.054932 2.354038 6,575 281 244 -1472
2021-06-23 07:54:28 GMT 49.054794 2.355411 6,600 281 245 -1536
2021-06-23 07:54:26 GMT 49.054375 2.358953 6,650 281 244 -1600
2021-06-23 07:54:25 GMT 49.054096 2.361338 6,700 281 244 -1600
2021-06-23 07:54:24 GMT 49.053955 2.362350 6,725 281 244 -1664
2021-06-23 07:54:23 GMT 49.053677 2.364879 6,750 281 244 -1664
2021-06-23 07:54:21 GMT 49.053360 2.367413 6,775 281 244 -1664
2021-06-23 07:54:18 GMT 49.052837 2.371818 6,875 281 244 -1664
2021-06-23 07:54:17 GMT 49.052650 2.373553 6,900 281 244 -1664
2021-06-23 07:54:16 GMT 49.052444 2.375230 6,925 281 244 -1664
2021-06-23 07:54:15 GMT 49.052124 2.378258 6,975 280 243 -1664
2021-06-23 07:54:13 GMT 49.051712 2.381850 7,025 280 243 -1664
2021-06-23 07:54:12 GMT 49.051529 2.383540 7,050 280 243 -1664
2021-06-23 07:54:10 GMT 49.051300 2.385230 7,125 280 243 -1600
2021-06-23 07:54:07 GMT 49.050743 2.390249 7,225 280 242 -1472
2021-06-23 07:54:04 GMT 49.050247 2.394667 7,225 280 242 -1408
2021-06-23 07:54:03 GMT 49.049999 2.396826 7,250 280 242 -1344
2021-06-23 07:54:02 GMT 49.049625 2.400368 7,300 280 242 -1280
2021-06-23 07:54:00 GMT 49.049438 2.402031 7,325 280 242 -1216
2021-06-23 07:53:59 GMT 49.049252 2.403693 7,350 280 242 -1152
2021-06-23 07:53:58 GMT 49.048691 2.408752 7,400 280 242 -1024
2021-06-23 07:53:56 GMT 49.048691 2.408752 7,400 280 243 -960
2021-06-23 07:53:54 GMT 49.048462 2.410776 7,425 280 243 -832
2021-06-23 07:53:53 GMT 49.047913 2.415865 7,450 279 243 -704
2021-06-23 07:53:51 GMT 49.047775 2.417203 7,475 279 243 -640
2021-06-23 07:53:49 GMT 49.047623 2.419088 7,475 279 243 -576
2021-06-23 07:53:48 GMT 49.047298 2.422485 7,500 278 244 -512
2021-06-23 07:53:47 GMT 49.047134 2.424176 7,500 278 245 -448
2021-06-23 07:53:46 GMT 49.046738 2.429135 7,525 277 245 -448
2021-06-23 07:53:44 GMT 49.046738 2.429135 7,525 276 246 -448
2021-06-23 07:53:42 GMT 49.046509 2.433761 7,550 272 246 -512
2021-06-23 07:53:40 GMT 49.046448 2.435725 7,550 270 245 -576
2021-06-23 07:53:39 GMT 49.046459 2.437736 7,575 268 246 -512
2021-06-23 07:53:38 GMT 49.046494 2.439669 7,575 267 245 -512
2021-06-23 07:53:37 GMT 49.046585 2.441359 7,575 265 246 -512
2021-06-23 07:53:36 GMT 49.046677 2.443120 7,600 263 246 -512
2021-06-23 07:53:35 GMT 49.046970 2.446482 7,600 259 245 -448
2021-06-23 07:53:33 GMT 49.047226 2.448402 7,625 258 245 -448
2021-06-23 07:53:32 GMT 49.047440 2.449879 7,625 256 244 -384
2021-06-23 07:53:31 GMT 49.048004 2.453191 7,650 252 244 -256
2021-06-23 07:53:29 GMT 49.048370 2.455011 7,650 250 244 -128
2021-06-23 07:53:27 GMT 49.048782 2.456782 7,650 250 244 -128
2021-06-23 07:53:26 GMT 49.049561 2.459811 7,650 248 243 -64
2021-06-23 07:53:25 GMT 49.049973 2.461430 7,650 248 243 0
2021-06-23 07:53:23 GMT 49.050797 2.464459 7,650 248 244 0
2021-06-23 07:53:22 GMT 49.051208 2.465852 7,650 248 243 0
2021-06-23 07:53:21 GMT 49.051666 2.467417 7,650 248 243 0
2021-06-23 07:53:20 GMT 49.052048 2.468816 7,650 248 243 0
2021-06-23 07:53:19 GMT 49.052628 2.470867 7,650 247 243 0
2021-06-23 07:53:17 GMT 49.053726 2.474811 7,650 247 243 0
2021-06-23 07:53:14 GMT 49.054562 2.477851 7,650 247 243 0
2021-06-23 07:53:13 GMT 49.055740 2.481924 7,650 247 244 0
2021-06-23 07:53:11 GMT 49.056236 2.483705 7,650 247 244 0
2021-06-23 07:53:09 GMT 49.056931 2.486220 7,650 247 244 0
2021-06-23 07:53:08 GMT 49.057446 2.487897 7,650 247 244 0
2021-06-23 07:53:07 GMT 49.058395 2.491432 7,650 247 244 0
2021-06-23 07:53:05 GMT 49.058891 2.493101 7,650 247 244 0
2021-06-23 07:53:04 GMT 49.059357 2.494692 7,650 247 244 0
2021-06-23 07:53:02 GMT 49.059860 2.496432 7,650 247 244 0
2021-06-23 07:53:01 GMT 49.060753 2.499606 7,650 247 245 0
2021-06-23 07:53:00 GMT 49.061123 2.500907 7,650 247 244 0
2021-06-23 07:52:59 GMT 49.061588 2.502425 7,650 247 245 0
2021-06-23 07:52:58 GMT 49.062012 2.504038 7,650 247 245 0
2021-06-23 07:52:55 GMT 49.063454 2.509075 7,650 247 245 0
2021-06-23 07:52:54 GMT 49.063824 2.510376 7,650 247 245 0
2021-06-23 07:52:53 GMT 49.064301 2.512137 7,650 247 245 0
2021-06-23 07:52:51 GMT 49.065037 2.514640 7,650 247 245 0
2021-06-23 07:52:48 GMT 49.066479 2.519700 7,650 247 245 0
2021-06-23 07:52:45 GMT 49.067734 2.524326 7,650 247 245 0
2021-06-23 07:52:44 GMT 49.068283 2.526222 7,650 247 245 0
2021-06-23 07:52:42 GMT 49.069382 2.530025 7,650 247 244 0
2021-06-23 07:52:40 GMT 49.070110 2.532565 7,650 247 244 0
2021-06-23 07:52:39 GMT 49.070576 2.534156 7,650 247 244 0
2021-06-23 07:52:38 GMT 49.070984 2.535588 7,650 246 245 0
2021-06-23 07:52:36 GMT 49.072128 2.539462 7,650 246 244 0
2021-06-23 07:52:33 GMT 49.073322 2.543552 7,650 246 244 0
2021-06-23 07:52:32 GMT 49.073788 2.545142 7,650 246 244 0
2021-06-23 07:52:30 GMT 49.074764 2.548467 7,650 246 244 0
2021-06-23 07:52:27 GMT 49.075882 2.552225 7,650 246 244 0
2021-06-23 07:52:24 GMT 49.077557 2.557718 7,650 246 245 0
2021-06-23 07:52:22 GMT 49.078533 2.561043 7,650 246 245 0
2021-06-23 07:52:21 GMT 49.078999 2.562633 7,650 246 245 0
2021-06-23 07:52:20 GMT 49.079468 2.564223 7,650 246 245 0
2021-06-23 07:52:19 GMT 49.079929 2.565741 7,650 246 245 0
2021-06-23 07:52:18 GMT 49.081192 2.570167 7,650 246 245 0
2021-06-23 07:52:14 GMT 49.082108 2.573195 7,650 247 245 0
2021-06-23 07:52:12 GMT 49.083618 2.578407 7,650 247 245 0
2021-06-23 07:52:09 GMT 49.084541 2.581715 7,650 247 245 0
2021-06-23 07:52:07 GMT 49.085518 2.585040 7,650 247 245 0
2021-06-23 07:52:06 GMT 49.085938 2.586630 7,650 247 245 0
2021-06-23 07:52:04 GMT 49.086868 2.589816 7,650 247 245 0
2021-06-23 07:52:02 GMT 49.087738 2.592985 7,650 248 245 0
2021-06-23 07:52:01 GMT 49.088196 2.594604 7,650 248 245 0
2021-06-23 07:51:59 GMT 49.089149 2.598122 7,650 248 245 0
2021-06-23 07:51:58 GMT 49.089523 2.599534 7,650 248 245 0
2021-06-23 07:51:56 GMT 49.090405 2.602748 7,650 248 245 0
2021-06-23 07:51:55 GMT 49.090824 2.604338 7,650 248 244 0
2021-06-23 07:51:52 GMT 49.091896 2.608313 7,650 249 245 0
2021-06-23 07:51:49 GMT 49.093231 2.613478 7,650 249 244 0
2021-06-23 07:51:46 GMT 49.094269 2.617637 7,650 249 244 0
2021-06-23 07:51:44 GMT 49.095291 2.621648 7,650 250 244 0
2021-06-23 07:51:41 GMT 49.096363 2.625805 7,650 250 244 0
2021-06-23 07:51:40 GMT 49.096710 2.627282 7,650 250 244 0
2021-06-23 07:51:39 GMT 49.097122 2.628902 7,650 250 244 0
2021-06-23 07:51:38 GMT 49.097946 2.632212 7,650 250 244 0
2021-06-23 07:51:36 GMT 49.098831 2.635635 7,650 249 244 0
2021-06-23 07:51:33 GMT 49.099670 2.638959 7,650 249 244 0
2021-06-23 07:51:30 GMT 49.100880 2.643657 7,650 248 244 0
2021-06-23 07:51:27 GMT 49.102066 2.648057 7,650 248 244 0
2021-06-23 07:51:23 GMT 49.103767 2.654066 7,650 246 244 0
2021-06-23 07:51:20 GMT 49.105534 2.659920 7,650 245 245 0
2021-06-23 07:51:17 GMT 49.106838 2.664329 7,650 246 245 0
2021-06-23 07:51:13 GMT 49.108749 2.671157 7,650 250 247 -64
2021-06-23 07:51:10 GMT 49.109711 2.675805 7,650 257 248 -128
2021-06-23 07:51:07 GMT 49.110352 2.680453 7,650 264 248 -64
2021-06-23 07:51:03 GMT 49.110626 2.687214 7,550 273 247 0
2021-06-23 07:51:00 GMT 49.110352 2.693200 7,650 282 245 0
2021-06-23 07:50:57 GMT 49.109676 2.698300 7,650 286 244 -64
2021-06-23 07:50:54 GMT 49.108658 2.703200 7,650 295 243 -64
2021-06-23 07:50:50 GMT 49.106606 2.709648 7,650 301 243 -64
2021-06-23 07:50:47 GMT 49.105087 2.713271 7,625 309 241 64
2021-06-23 07:50:44 GMT 49.102753 2.717637 7,650 315 241 192
2021-06-23 07:50:39 GMT 49.099228 2.722849 7,625 325 241 512
2021-06-23 07:50:36 GMT 49.096642 2.725838 7,600 327 241 832
2021-06-23 07:50:33 GMT 49.093758 2.728657 7,550 329 242 1152
2021-06-23 07:50:30 GMT 49.089706 2.732427 7,450 330 243 1664
2021-06-23 07:50:26 GMT 49.087193 2.734656 7,375 329 245 2048
2021-06-23 07:50:23 GMT 49.084167 2.737475 6,850 328 251 3136
2021-06-23 07:50:19 GMT 49.079544 2.742004 7,025 327 251 3008
2021-06-23 07:50:16 GMT 49.077370 2.744052 6,925 329 251 3136
2021-06-23 07:50:13 GMT 49.073410 2.747709 6,725 335 252 3008
2021-06-23 07:50:10 GMT 49.069977 2.750315 6,525 341 252 2880
2021-06-23 07:50:07 GMT 49.066818 2.752075 6,425 346 251 2880
2021-06-23 07:50:03 GMT 49.063660 2.753272 6,225 353 251 2816
2021-06-23 07:50:00 GMT 49.059772 2.753882 6,050 4 250 2496
2021-06-23 07:49:57 GMT 49.056889 2.753738 5,925 9 249 2304
2021-06-23 07:49:54 GMT 49.052765 2.752850 5,875 14 249 2112
2021-06-23 07:49:50 GMT 49.048042 2.750341 5,700 27 244 1664
2021-06-23 07:49:47 GMT 49.045341 2.748172 5,675 32 242 1600
2021-06-23 07:49:42 GMT 49.041477 2.743908 5,550 41 237 1792
2021-06-23 07:49:37 GMT 49.037380 2.737114 5,350 56 231 2304
2021-06-23 07:49:33 GMT 49.035149 2.731765 5,150 63 229 2752
2021-06-23 07:49:30 GMT 49.033539 2.726863 4,975 71 227 3008
2021-06-23 07:49:27 GMT 49.032486 2.722497 4,900 73 228 3008
2021-06-23 07:49:24 GMT 49.031563 2.716948 4,600 82 226 3200
2021-06-23 07:49:20 GMT 49.031021 2.710876 4,450 86 226 3392
2021-06-23 07:49:16 GMT 49.030773 2.705528 4,325 86 226 3456
2021-06-23 07:49:12 GMT 49.030518 2.699115 4,075 86 227 3392
2021-06-23 07:49:09 GMT 49.030289 2.694045 3,900 86 227 2816
2021-06-23 07:49:06 GMT 49.030075 2.689265 3,775 85 226 2304
2021-06-23 07:49:02 GMT 49.029785 2.682918 2,950 85 221 1344
2021-06-23 07:48:58 GMT 49.029465 2.676650 3,575 85 215 832
2021-06-23 07:48:55 GMT 49.029282 2.673481 3,550 85 209 448
2021-06-23 07:48:52 GMT 49.028961 2.668058 3,525 84 202 448
2021-06-23 07:48:47 GMT 49.028503 2.660945 3,475 83 190 512
2021-06-23 07:48:43 GMT 49.028137 2.655522 3,450 84 185 512
2021-06-23 07:48:39 GMT 49.027794 2.650524 3,425 84 177 384
2021-06-23 07:48:36 GMT 49.027588 2.646367 3,400 85 168 192
2021-06-23 07:48:32 GMT 49.027328 2.642140 3,400 85 159 384
2021-06-23 07:48:27 GMT 49.027046 2.636502 3,275 85 153 2048
2021-06-23 07:48:25 GMT 49.026955 2.634334 3,250 85 153 2048
2021-06-23 07:48:21 GMT 49.026768 2.630792 3,125 86 152 2048
2021-06-23 07:48:18 GMT 49.026630 2.627250 2,950 86 151 2048
2021-06-23 07:48:15 GMT 49.026443 2.623620 2,875 86 151 2048
2021-06-23 07:48:12 GMT 49.026302 2.619806 2,775 85 150 1984
2021-06-23 07:48:07 GMT 49.026115 2.616119 2,525 85 150 1984
2021-06-23 07:48:03 GMT 49.025894 2.611718 2,525 85 149 1920
2021-06-23 07:48:00 GMT 49.025711 2.608056 2,375 84 147 1984
2021-06-23 07:47:57 GMT 49.025528 2.605027 2,325 84 147 1984
2021-06-23 07:47:53 GMT 49.025326 2.601519 2,200 84 145 1984
2021-06-23 07:47:49 GMT 49.025002 2.596315 2,050 84 145 2176
2021-06-23 07:47:45 GMT 49.024841 2.593055 1,925 84 145 2432
2021-06-23 07:47:42 GMT 49.024612 2.589675 1,750 84 146 2624
2021-06-23 07:47:38 GMT 49.024349 2.584967 1,575 85 146 2560
2021-06-23 07:47:35 GMT 49.024200 2.582280 1,475 85 147 2560
2021-06-23 07:47:32 GMT 49.024063 2.579181 1,325 85 147 2624
2021-06-23 07:47:26 GMT 49.023697 2.572825 1,025 85 150 2368
2021-06-23 07:47:21 GMT 49.023468 2.568195 875 85 150 2368
2021-06-23 07:47:16 GMT 49.023232 2.563284 675 85 147 2240
2021-06-23 07:47:07 GMT 49.022720 2.553093 300 85 154 1856
2021-06-23 07:46:48 GMT 49.021835 2.535312 225 85 121 0
2021-06-23 07:46:47 GMT 49.021763 2.534499 0 84 94
2021-06-23 07:46:36 GMT 49.021496 2.529277 0 84 48
2021-06-23 07:46:27 GMT 49.021404 2.527596 0 87 0
2021-06-23 07:46:16 GMT 49.021408 2.527595 0 87 0
2021-06-23 07:46:06 GMT 49.021431 2.527472 0 67 4
2021-06-23 07:45:55 GMT 49.021358 2.527163 0 11 7
2021-06-23 07:45:45 GMT 49.021076 2.527127 0 354 9
2021-06-23 07:45:36 GMT 49.020630 2.527208 0 354 11
2021-06-23 07:45:24 GMT 49.020115 2.527278 0 354 7
2021-06-23 07:45:15 GMT 49.019844 2.527307 0 354 7
2021-06-23 07:45:05 GMT 49.019508 2.527348 0 354 10
2021-06-23 07:44:55 GMT 49.018982 2.527398 0 348 14
2021-06-23 07:44:44 GMT 49.018364 2.527912 0 289 16
2021-06-23 07:43:38 GMT 49.018692 2.536035 0 264 21
2021-06-23 07:43:07 GMT 49.018936 2.540500 0 264 22
2021-06-23 07:42:56 GMT 49.019039 2.542323 0 264 22
2021-06-23 07:42:54 GMT 49.019039 2.542431 0 264 22
2021-06-23 07:42:43 GMT 49.019131 2.544022 0 267 21
2021-06-23 07:42:32 GMT 49.019226 2.545702 0 264 20
2021-06-23 07:42:24 GMT 49.019279 2.546645 0 264 17
2021-06-23 07:42:11 GMT 49.019321 2.547979 0 300 14
2021-06-23 07:42:03 GMT 49.018993 2.548467 0 351 13
2021-06-23 07:41:53 GMT 49.018414 2.548539 0 357 15
2021-06-23 07:41:09 GMT 49.014874 2.548973 0 357 20
2021-06-23 07:41:02 GMT 49.014233 2.549092 0 348 20
2021-06-23 07:40:52 GMT 49.013329 2.549424 0 345 21
2021-06-23 07:40:38 GMT 49.012058 2.549967 0 343 22
2021-06-23 07:40:32 GMT 49.011406 2.550256 0 343 23
2021-06-23 07:40:22 GMT 49.010384 2.550707 0 343 25
2021-06-23 07:40:08 GMT 49.008820 2.551381 0 343 25
2021-06-23 07:39:59 GMT 49.007961 2.551768 0 345 19
2021-06-23 07:39:52 GMT 49.007381 2.551990 0 340 14
2021-06-23 07:39:41 GMT 49.006908 2.552561 0 258 13
2021-06-23 07:39:20 GMT 49.007263 2.554321 0 264 21
2021-06-23 07:39:09 GMT 49.007343 2.555800 0 264 18
2021-06-23 07:38:55 GMT 49.007526 2.557948 0 264 26
2021-06-23 07:38:42 GMT 49.007763 2.560411 0 261 27
2021-06-23 07:38:31 GMT 49.007950 2.562380 0 261 26
2021-06-23 07:38:19 GMT 49.008160 2.564549 0 261 24
2021-06-23 07:38:11 GMT 49.008251 2.565777 0 264 23
2021-06-23 07:37:59 GMT 49.008358 2.567584 0 264 23
2021-06-23 07:37:48 GMT 49.008450 2.569337 0 264 20
2021-06-23 07:37:37 GMT 49.008511 2.570642 0 264 15
2021-06-23 07:37:30 GMT 49.008545 2.571329 0 278 13
2021-06-23 07:37:18 GMT 49.008251 2.572030 0 340 9

Making use of Plane Finder data

You are free to use the raw flight data, aircraft information and images provided in this report for your own purposes provided the data is correctly attributed to Plane Finder. We ask that you please credit Plane Finder and link to planefinder.net in close proximity to the content.

Optionally one of the following logos (no smaller then 150x24px) can be used and must link to planefinder.net

Embedding the Plane Finder map

You are welcome to embed the Plane Finder playback map on your website to offer visitors a more interactive experience. We suggest using the following HTML code:

<iframe src="//planefinder.net/data/report/AF7551-F-HBNL-7700-squawk-2021-06-23/map" width="800" height="600" seamless="seamless"></iframe>

Where our data comes from

Plane Finder has a global network of data feeds and antenna radars that receive data broadcast directly from aircraft. The primary technologies used are ADS-B and MLAT. We also show feeds from the FAA and a FLARM glider feed.

Click here to find out more about the Plane Finder network.

How we collect our data